• Join FlightAware (Why Join?)
  • Login
  • US Flag 
02:14AM EDT


 

Airport Tracker/Info


-or-


 

Live Flight TrackerFlight Track Log ✈ UAL1635 ✈ 06-May-2013 ✈ KSFO - KEWR

Flight Track Log - Related Links

Times and Time Zones

All times are in EDT time to prevent confusion due to time zone crossing. See the UAL1635 flight status page for this flight to view local times or setup timezone preferences in your user account.

Time Position Orientation Groundspeed Altitude Reporting Facility
EDT Latitude Longitude Course Direction KTS MPH feet Rate Location/Type
02:08PM 37.6667 -122.3333 70° East 201 231 2,000  Level Northern Cal TRACON
02:10PM 37.6386 -122.4381 117° Southeast  Level FlightAware Approximate
02:10PM 37.7908 -122.3050 10° North 266 306 6,800  Level Oakland Center
02:11PM 37.6387 -122.2952 72° East  Level FlightAware Approximate
02:12PM 37.8638 -122.0496 70° East  Level Estimated
02:12PM 37.6825 -122.1516 58° Northeast  Level FlightAware Approximate
02:13PM 37.7305 -122.0098 70° East  Level FlightAware Approximate
02:13PM 37.9464 -122.1361 70° East 305 351 12,700  Level Oakland Center
02:15PM 37.9728 -121.9039 82° East 335 386 17,900 2,100 Climbing Oakland Center
02:16PM 37.9878 -121.7803 81° East 352 405 19,200 1,800 Climbing Oakland Center
02:17PM 38.0153 -121.6528 75° East 374 430 21,600 1,920 Climbing Oakland Center
02:18PM 38.0422 -121.5214 75° East 383 441 23,200 1,620 Climbing Oakland Center
02:19PM 38.0711 -121.3833 75° East 395 455 25,000 1,560 Climbing Oakland Center
02:21PM 38.1189 -121.1551 77° East  Level FlightAware Approximate
02:23PM 38.1889 -120.8039 70° East 405 466 31,400  Level Oakland Center
02:25PM 38.2460 -120.5928 78° East  Level Estimated
02:25PM 38.2358 -120.5225 78° East 410 472 33,100  Level Oakland Center
02:26PM 38.2611 -120.3786 77° East 416 479 34,000 720 Climbing Oakland Center
02:27PM 38.2839 -120.2342 79° East 417 480 34,600 240 Climbing Oakland Center
02:28PM 38.3223 -120.0831 76° East  Level FlightAware Approximate
02:29PM 38.3654 -119.9351 70° East  Level FlightAware Approximate
02:30PM 38.3425 -119.8797 78° East 434 499 35,000  Level Salt Lake Center
02:30PM 38.3672 -119.7525 76° East 433 498 35,000  Level Oakland Center
02:32PM 38.4161 -119.4642 78° East 427 491 35,000  Level Oakland Center
02:33PM 38.4383 -119.3167 79° East 426 490 35,000  Level Oakland Center
02:34PM 38.4667 -119.1417 78° East 424 488 35,000  Level Oakland Center
02:35PM 38.4869 -118.9958 80° East 421 484 35,000  Level Oakland Center
02:37PM 38.5333 -118.7044 78° East 422 486 35,000  Level Oakland Center
02:38PM 38.5547 -118.5558 80° East 426 490 35,000  Level Oakland Center
02:41PM 38.5997 -118.2625 79° East 425 489 35,000  Level Oakland Center
02:43PM 38.6392 -117.9606 80° East 422 486 35,000  Level Oakland Center
02:44PM 38.6675 -117.8025 77° East 416 479 35,000  Level Oakland Center
02:45PM 38.6831 -117.6697 81° East 422 486 35,000  Level Oakland Center
02:46PM 38.7072 -117.4947 80° East 428 493 35,000  Level Oakland Center
02:48PM 38.7503 -117.1942 80° East 432 497 35,000  Level Oakland Center
02:48PM 38.7575 -117.1289 82° East 431 496 35,000  Level Salt Lake Center
02:49PM 38.7708 -117.0414 79° East 434 499 35,000  Level Oakland Center
02:50PM 38.7914 -116.8911 80° East 430 495 35,000  Level Oakland Center
02:50PM 38.7989 -116.8264 82° East 428 493 35,000  Level Salt Lake Center
02:52PM 38.8325 -116.5919 80° East 426 490 35,000  Level Oakland Center
02:54PM 38.8603 -116.3876 80° East  Level FlightAware Approximate
02:55PM 38.8917 -116.1339 80° East 430 495 35,000  Level Oakland Center
02:55PM 38.9022 -116.0469 81° East 428 493 35,000  Level Salt Lake Center
02:57PM 38.9277 -115.8552 80° East  Level FlightAware Approximate
03:00PM 38.9983 -115.2861 81° East 433 498 35,000  Level Salt Lake Center
03:02PM 39.0353 -115.1245 74° East  Level Estimated
03:04PM 39.0556 -114.8075 74° East 423 487 35,000  Level Salt Lake Center
03:04PM 39.0661 -114.7641 80° East  Level FlightAware Approximate
03:05PM 39.0851 -114.6079 81° East  Level FlightAware Approximate
03:06PM 39.1038 -114.4516 81° East  Level FlightAware Approximate
03:06PM 39.0903 -114.5047 82° East 428 493 35,000  Level Salt Lake Center
03:07PM 39.1078 -114.3533 81° East 428 493 35,000  Level Salt Lake Center
03:08PM 39.1250 -114.2014 82° East 430 495 35,000  Level Salt Lake Center
03:09PM 39.2723 -114.0595 74° East  Level Estimated
03:09PM 39.1428 -114.0497 81° East 429 494 35,000  Level Salt Lake Center
03:10PM 39.1597 -113.8961 82° East 431 496 35,000  Level Salt Lake Center
03:11PM 39.1758 -113.7422 82° East 433 498 35,000  Level Salt Lake Center
03:12PM 39.1947 -113.5569 82° East 434 499 35,000  Level Salt Lake Center
03:13PM 39.2117 -113.4031 82° East 433 498 35,000  Level Salt Lake Center
03:15PM 39.2477 -113.1298 84° East  Level FlightAware Approximate
03:15PM 39.2439 -113.0978 84° East 430 495 35,000  Level Salt Lake Center
03:17PM 39.2691 -112.8329 83° East  Level FlightAware Approximate
03:17PM 39.2739 -112.7900 83° East 435 501 35,000  Level Salt Lake Center
03:19PM 39.3125 -112.4778 81° East 439 505 35,000  Level Salt Lake Center
03:20PM 39.3669 -112.3014 68° East 443 510 35,000  Level Salt Lake Center
03:21PM 39.4125 -112.1542 68° East 444 511 35,000  Level Salt Lake Center
03:22PM 39.4581 -112.0089 68° East 439 505 35,000  Level Salt Lake Center
03:24PM 39.5213 -111.7876 68° East  Level FlightAware Approximate
03:24PM 39.5489 -111.7139 79° East 443 510 35,000  Level Salt Lake Center
03:26PM 39.6192 -111.3786 75° East 440 506 35,000  Level Salt Lake Center
03:27PM 39.6403 -111.2300 80° East 440 506 35,000  Level Salt Lake Center
03:28PM 39.6614 -111.0811 80° East 439 505 35,000  Level Salt Lake Center
03:29PM 39.6864 -110.9078 79° East 437 503 35,000  Level Salt Lake Center
03:30PM 39.7067 -110.7592 80° East 437 503 35,000  Level Salt Lake Center
03:31PM 39.6925 -110.7022 79° East  Level FlightAware Approximate
03:33PM 39.8545 -109.6000 80° East  Level FlightAware Approximate
03:33PM 39.7769 -110.2403 80° East 436 502 35,000  Level Denver Center
03:35PM 39.7978 -110.0925 80° East 433 498 35,000  Level Denver Center
03:35PM 39.8147 -109.9683 80° East 438 504 35,000  Level Salt Lake Center
03:36PM 39.8481 -109.7956 76° East 440 506 35,000  Level Salt Lake Center
03:37PM 39.8803 -109.6478 74° East 442 509 35,000  Level Salt Lake Center
03:38PM 39.9169 -109.4731 75° East 446 513 35,000  Level Salt Lake Center
03:40PM 39.9492 -109.3247 74° East 444 511 35,000  Level Salt Lake Center
03:41PM 39.9806 -109.1750 75° East 445 512 35,000 300 Level Salt Lake Center
03:43PM 40.0492 -108.8450 75° East 453 521 36,000 480 Climbing Salt Lake Center
03:45PM 40.1181 -108.5111 75° East 458 527 37,000 300 Climbing Salt Lake Center
03:46PM 40.1492 -108.3569 75° East 458 527 37,000  Level Salt Lake Center
03:47PM 40.1864 -108.1769 75° East 456 525 37,000  Level Salt Lake Center
03:49PM 40.2255 -107.9259 78° East  Level FlightAware Approximate
03:50PM 40.2878 -107.6628 75° East 455 524 37,000  Level Denver Center
03:51PM 40.3214 -107.4844 76° East 452 520 37,000  Level Denver Center
03:52PM 40.3508 -107.3331 76° East 450 518 37,000  Level Denver Center
03:53PM 40.3858 -107.1539 76° East 452 520 37,000  Level Denver Center
03:54PM 40.4150 -107.0017 76° East 452 520 37,000  Level Denver Center
03:56PM 40.4287 -106.8472 75° East  Level FlightAware Approximate
03:56PM 40.4542 -106.7851 77° East  Level FlightAware Approximate
03:56PM 40.4750 -106.6786 77° East 456 525 37,000  Level Denver Center
03:57PM 40.5047 -106.5169 76° East 455 524 37,000  Level Denver Center
03:59PM 40.5404 -106.3126 77° East  Level FlightAware Approximate
03:59PM 40.5672 -106.1822 77° East 451 519 37,000  Level Denver Center
04:00PM 40.5953 -106.0236 77° East 446 513 37,000  Level Denver Center
04:02PM 40.6166 -105.8323 77° East  Level FlightAware Approximate
04:02PM 40.6575 -105.6747 77° East 446 513 37,000  Level Denver Center
04:03PM 40.6858 -105.5108 77° East 451 519 37,000  Level Denver Center
04:04PM 40.7133 -105.3500 77° East 447 514 37,000  Level Denver Center
04:06PM 40.7315 -105.1814 77° East  Level FlightAware Approximate
04:06PM 40.7700 -105.0231 77° East 450 518 37,000  Level Denver Center
04:07PM 40.7967 -104.8572 78° East 455 524 37,000  Level Denver Center
04:09PM 40.8175 -104.7023 80° East  Level FlightAware Approximate
04:10PM 40.8525 -104.5283 80° East 459 528 37,000  Level Denver Center
04:11PM 40.8803 -104.3606 78° East 463 533 37,000  Level Denver Center
04:12PM 40.9072 -104.1942 78° East 461 531 37,000  Level Denver Center
04:13PM 40.9389 -103.9972 78° East 464 534 37,000  Level Denver Center
04:14PM 40.9661 -103.8278 78° East 465 535 37,000  Level Denver Center
04:15PM 40.9928 -103.6558 78° East 465 535 37,000  Level Denver Center
04:17PM 41.0464 -103.3083 78° East 467 537 37,000  Level Denver Center
04:18PM 41.0708 -103.1472 79° East 467 537 37,000  Level Denver Center
04:20PM 41.0913 -102.8741 83° East  Level FlightAware Approximate
04:22PM 41.1386 -102.4397 84° East 466 536 37,000  Level Denver Center
04:23PM 41.1508 -102.2753 84° East 468 539 37,000  Level Denver Center
04:24PM 41.1664 -102.0842 84° East 467 537 37,000  Level Denver Center
04:25PM 41.1758 -101.9203 86° East 466 536 37,000  Level Denver Center
04:26PM 41.1911 -101.7289 84° East 467 537 37,000  Level Denver Center
04:27PM 41.1812 -101.7627 84° East  Level FlightAware Approximate
04:28PM 41.2111 -101.4278 85° East 466 536 37,000  Level Denver Center
04:29PM 41.2258 -101.2067 85° East 469 540 37,000  Level Denver Center
04:31PM 41.2387 -100.9834 86° East  Level FlightAware Approximate
04:32PM 41.2603 -100.6756 86° East 474 545 37,000  Level Denver Center
04:34PM 41.2799 -100.4665 83° East  Level Estimated
04:34PM 41.2808 -100.3119 83° East 473 544 37,000  Level Denver Center
04:35PM 41.2903 -100.1436 86° East 475 547 37,000  Level Denver Center
04:36PM 41.3017 -99.9503 85° East 471 542 37,000  Level Denver Center
04:37PM 41.3097 -99.7831 86° East 472 543 37,000  Level Denver Center
04:38PM 41.2966 -99.8661 86° East  Level FlightAware Approximate
04:39PM 41.3160 -99.5938 87° East  Level FlightAware Approximate
04:39PM 41.3278 -99.4178 87° East 472 543 37,000  Level Denver Center
04:40PM 41.3367 -99.2436 86° East 470 541 37,000  Level Denver Center
04:41PM 41.3447 -99.0675 86° East 473 544 37,000  Level Denver Center
04:42PM 41.3531 -98.8897 86° East 474 545 37,000  Level Denver Center
04:43PM 41.3589 -98.7344 87° East 474 545 37,000  Level Minneapolis Center
04:45PM 41.3758 -98.3594 86° East 473 544 37,000  Level Minneapolis Center
04:47PM 41.3806 -98.1861 88° East 469 540 37,000  Level Minneapolis Center
04:49PM 41.3884 -97.8684 88° East  Level FlightAware Approximate
04:50PM 41.1328 -97.8519 88° East 459 528 37,000  Level Minneapolis Center
04:51PM 41.0944 -97.6953 108° East 470 541 37,000  Level Minneapolis Center
04:52PM 41.1189 -97.4897 81° East 470 541 37,000  Level Minneapolis Center
04:54PM 41.1603 -97.1458 81° East 470 541 37,000  Level Minneapolis Center
04:55PM 41.1806 -96.9764 81° East 468 539 37,000  Level Minneapolis Center
04:56PM 41.2006 -96.8072 81° East 465 535 37,000  Level Minneapolis Center
04:57PM 41.2200 -96.6378 81° East 466 536 37,000  Level Minneapolis Center
04:58PM 41.2397 -96.4706 81° East 462 532 37,000  Level Minneapolis Center
04:59PM 41.2628 -96.2714 81° East 458 527 37,000  Level Minneapolis Center
05:00PM 41.2797 -96.1047 82° East 456 525 37,000  Level Minneapolis Center
05:01PM 41.3011 -95.9075 82° East 450 518 37,000  Level Minneapolis Center
05:03PM 41.3158 -95.7022 84° East  Level FlightAware Approximate
05:04PM 41.3547 -95.4014 85° East 443 510 37,000  Level Minneapolis Center
05:05PM 41.3725 -95.2392 82° East 445 512 37,000  Level Minneapolis Center
05:06PM 41.3883 -95.0736 83° East 448 516 37,000  Level Minneapolis Center
05:07PM 41.4058 -94.9089 82° East 449 517 37,000  Level Minneapolis Center
05:08PM 41.4239 -94.7431 82° East 452 520 37,000  Level Minneapolis Center
05:09PM 41.4417 -94.5467 83° East 447 514 37,000  Level Minneapolis Center
05:10PM 41.3886 -94.5950 85° East  Level FlightAware Approximate
05:11PM 41.4575 -94.3847 83° East 443 510 37,000  Level Minneapolis Center
05:12PM 41.4708 -94.2208 84° East 444 511 37,000  Level Minneapolis Center
05:13PM 41.4847 -94.0644 83° East 440 506 37,000  Level Minneapolis Center
05:14PM 41.5150 -93.7428 83° East 433 498 37,000  Level Chicago Center
05:15PM 41.5286 -93.5817 84° East 438 504 37,000  Level Chicago Center
05:17PM 41.5422 -93.4242 83° East 432 497 37,000  Level Chicago Center
05:18PM 41.5581 -93.2403 83° East 427 491 37,000  Level Minneapolis Center
05:19PM 41.5708 -93.0864 84° East 421 484 37,000  Level Minneapolis Center
05:21PM 41.5961 -92.7739 84° East 424 488 37,000  Level Chicago Center
05:22PM 41.6086 -92.6194 84° East 422 486 37,000  Level Chicago Center
05:24PM 41.6361 -92.2825 84° East 420 483 37,000  Level Minneapolis Center
05:25PM 41.6464 -92.1278 85° East 420 483 37,000  Level Chicago Center
05:26PM 41.6583 -91.9753 84° East 420 483 37,000  Level Chicago Center
05:28PM 41.6797 -91.6708 85° East 418 481 37,000  Level Chicago Center
05:30PM 41.6197 -91.4286 108° East  Level FlightAware Approximate
05:30PM 41.7036 -91.3350 108° East 419 482 37,000  Level Chicago Center
05:31PM 41.7131 -91.1808 85° East 420 483 37,000  Level Chicago Center
05:32PM 41.7225 -91.0275 85° East 421 484 37,000  Level Chicago Center
05:33PM 41.7331 -90.8736 85° East 422 486 37,000  Level Chicago Center
05:34PM 41.7450 -90.6867 85° East 424 488 37,000  Level Chicago Center
05:35PM 41.7553 -90.5306 85° East 427 491 37,000  Level Chicago Center
05:37PM 41.7467 -90.3158 93° East  Level FlightAware Approximate
05:40PM 41.8014 -89.7061 94° East 427 491 37,000  Level Chicago Center
05:41PM 41.8081 -89.5639 86° East 424 488 37,000  Level Chicago Center
05:43PM 41.8070 -89.3805 90° East  Level Estimated
05:44PM 41.6959 -89.2033 93° East  Level FlightAware Approximate
05:44PM 41.8339 -89.0550 91° East 431 496 37,000  Level Chicago Center
05:45PM 41.6878 -89.0445 94° East  Level FlightAware Approximate
05:45PM 41.8417 -88.8958 86° East 430 495 37,000  Level Chicago Center
05:46PM 41.6795 -88.8857 94° East  Level FlightAware Approximate
05:47PM 41.8481 -88.7361 87° East 432 497 37,000  Level Chicago Center
05:48PM 41.8550 -88.5786 87° East 426 490 37,000  Level Chicago Center
05:49PM 41.8628 -88.3925 87° East 420 483 37,000  Level Chicago Center
05:50PM 41.7943 -88.2647 91° East  Level Estimated
05:51PM 41.8564 -88.0894 92° East  Level Estimated
05:52PM 41.8817 -87.9278 92° East 413 475 37,000  Level Chicago Center
05:53PM 41.8869 -87.7728 87° East 415 478 37,000  Level Chicago Center
05:54PM 41.8925 -87.6175 87° East 416 479 37,000  Level Chicago Center
05:56PM 41.8667 -87.3436 97° East  Level FlightAware Approximate
05:57PM 41.9081 -87.1236 97° East 418 481 37,000  Level Chicago Center
05:59PM 41.8273 -86.8951 94° East  Level FlightAware Approximate
05:59PM 41.9183 -86.8156 94° East 415 478 37,000  Level Chicago Center
06:01PM 41.8924 -86.5697 98° East  Level FlightAware Approximate
06:01PM 41.9261 -86.4719 98° East 423 487 37,000  Level Chicago Center
06:03PM 41.8951 -86.2405 100° East  Level FlightAware Approximate
06:03PM 41.9336 -86.1586 100° East 420 483 37,000  Level Chicago Center
06:04PM 41.9369 -86.0011 88° East 421 484 37,000  Level Chicago Center
06:06PM 41.9253 -85.7823 94° East  Level Estimated
06:07PM 41.9469 -85.5814 94° East 422 486 37,000  Level Cleveland Center
06:08PM 41.9514 -85.4253 88° East 422 486 37,000  Level Cleveland Center
06:08PM 41.9492 -85.3358 92° East 423 487 37,000  Level Chicago Center
06:09PM 41.9519 -85.1761 89° East 424 488 37,000  Level Chicago Center
06:10PM 41.9542 -85.1069 88° East 422 486 37,000  Level Cleveland Center
06:11PM 41.9519 -84.9475 91° East 422 486 37,000  Level Cleveland Center
06:12PM 41.9514 -84.7911 90° East 422 486 37,000  Level Cleveland Center
06:13PM 41.9478 -84.5422 91° East 422 486 37,000  Level Chicago Center
06:14PM 41.9481 -84.4781 90° East 422 486 37,000  Level Cleveland Center
06:15PM 41.9469 -84.3217 90° East 422 486 37,000  Level Cleveland Center
06:16PM 41.9411 -84.1817 93° East 422 486 37,000  Level Cleveland Center
06:17PM 41.9394 -84.0253 91° East 422 486 37,000  Level Cleveland Center
06:18PM 41.9358 -83.8658 92° East 422 486 37,000  Level Cleveland Center
06:19PM 41.9339 -83.7122 91° East 422 486 37,000  Level Cleveland Center
06:21PM 41.9322 -83.3800 90° East 417 480 37,000  Level Cleveland Center
06:22PM 41.9336 -83.2236 89° East 422 486 37,000  Level Cleveland Center
06:23PM 41.9289 -83.0617 92° East 427 491 37,000  Level Cleveland Center
06:25PM 41.9292 -82.7489 90° East 422 486 37,000  Level Cleveland Center
06:26PM 41.9236 -82.5925 93° East 422 486 37,000  Level Cleveland Center
06:27PM 41.9264 -82.4336 89° East 422 486 37,000  Level Cleveland Center
06:28PM 41.9247 -82.2689 91° East 427 491 37,000  Level Cleveland Center
06:29PM 41.9225 -82.1292 91° East 427 491 37,000  Level Cleveland Center
06:31PM 41.9161 -81.7914 91° East 430 495 37,000  Level Cleveland Center
06:32PM 41.8989 -81.6347 98° East 425 489 37,000  Level Cleveland Center
06:33PM 41.8836 -81.4783 97° East 425 489 37,000  Level Cleveland Center
06:34PM 41.8722 -81.3194 95° East 425 489 37,000  Level Cleveland Center
06:35PM 41.8564 -81.1631 98° East 425 489 37,000  Level Cleveland Center
06:36PM 41.8403 -81.0039 98° East 425 489 37,000  Level Cleveland Center
06:37PM 41.8264 -80.8422 97° East 425 489 37,000  Level Cleveland Center
06:38PM 41.8119 -80.7003 98° East 425 489 37,000  Level Cleveland Center
06:39PM 41.7953 -80.5442 98° East 426 490 37,000  Level Cleveland Center
06:40PM 41.7806 -80.3828 97° East 431 496 37,000  Level Cleveland Center
06:41PM 41.7656 -80.2239 97° East 431 496 37,000  Level Cleveland Center
06:42PM 41.7483 -80.0656 98° East 425 489 37,000  Level Cleveland Center
06:43PM 41.7286 -79.8958 99° East 425 489 37,000  Level Cleveland Center
06:44PM 41.7150 -79.7347 96° East 432 497 37,000  Level Cleveland Center
06:45PM 41.6972 -79.5764 99° East 432 497 37,000  Level Cleveland Center
06:46PM 41.6811 -79.4183 98° East 432 497 37,000  Level Cleveland Center
06:47PM 41.6647 -79.2711 98° East 432 497 37,000  Level Cleveland Center
06:48PM 41.6439 -79.0939 99° East 432 497 37,000  Level Cleveland Center
06:49PM 41.6272 -78.9331 98° East 432 497 37,000  Level Cleveland Center
06:51PM 41.5886 -78.6119 99° East 437 503 37,000 -960 Level Cleveland Center
06:54PM 41.5535 -78.3799 100° East  Level FlightAware Approximate
06:55PM 41.5058 -77.9239 100° East 432 497 31,000  Level New York Center
06:56PM 41.4822 -77.7606 101° East 432 497 31,000  Level New York Center
06:57PM 41.4586 -77.5975 101° East 437 503 31,000  Level New York Center
06:58PM 41.4381 -77.4431 100° East 447 514 31,000  Level New York Center
06:59PM 41.4106 -77.2633 101° East 452 520 31,000 -900 Level New York Center
07:01PM 41.3756 -77.0367 102° East  Level FlightAware Approximate
07:03PM 41.2886 -76.5997 112° Southeast 457 526 26,600  Level New York Center
07:05PM 41.2072 -76.3006 110° East 430 495 21,800 -2,220 Descending New York Center
07:07PM 41.1397 -76.0442 109° East 390 449 17,900 -1,740 Descending New York Center
07:08PM 41.1233 -76.0005 112° Southeast  Level FlightAware Approximate
07:08PM 41.1003 -75.9006 110° East 375 432 16,600  Level New York Center
07:09PM 41.0788 -75.8559 112° Southeast  Level FlightAware Approximate
07:10PM 41.0372 -75.6647 109° East 363 418 14,300  Level New York Center
07:11PM 40.9989 -75.5328 111° Southeast 350 403 13,000 -1,020 Descending New York Center
07:13PM 40.9324 -75.3227 118° Southeast  Level FlightAware Approximate
07:14PM 40.9000 -75.1833 118° Southeast 313 360 10,200  Level New York TRACON
07:15PM 40.8833 -75.0833 102° East 273 314 9,300 -1,200 Descending New York TRACON
07:16PM 40.8500 -75.0000 118° Southeast 271 312 7,900 -1,140 Descending New York TRACON
07:17PM 40.8500 -74.8833 90° East 284 327 7,000 -600 Descending New York TRACON
07:18PM 40.8667 -74.7833 78° East 275 316 6,700 -540 Descending New York TRACON
07:19PM 40.9000 -74.7161 57° Northeast 267 307 6,000 -480 Descending New York Center
07:21PM 40.8222 -74.5098 101° East  Level Estimated
07:21PM 40.9833 -74.5167 101° East 277 319 5,300  Level New York TRACON
07:22PM 41.0144 -74.4561 56° Northeast 272 313 5,000 -180 Descending New York Center
07:23PM 41.0333 -74.3667 74° East 241 277 5,000  Level New York TRACON
07:24PM 41.0167 -74.2833 105° East 227 261 5,000 -420 Level New York TRACON
07:25PM 40.9833 -74.2000 118° Southeast 225 259 4,200 -540 Descending New York TRACON
07:26PM 40.9500 -74.1500 131° Southeast 216 249 4,000 -360 Descending New York TRACON
07:28PM 40.7870 -74.1618 169° South  Level Estimated
07:29PM 40.8333 -74.0833 169° South 172 198 2,800  Level New York TRACON
07:30PM 40.7833 -74.1000 194° South 172 198 1,900 -900 Descending New York TRACON
07:31PM 40.7500 -74.1333 217° Southwest 155 178 1,000 -900 Descending New York TRACON
07:32PM 40.7000 -74.1500 194° South 142 163 200 -840 Descending New York TRACON